Time;durP1;ratioP1;P1;durP2;ratioP2;P2;SDS_P1;SDS_P2;PMS_P1;PMS_P2;Temp;Humidity;BMP_temperature;BMP_pressure;BME280_temperature;BME280_humidity;BME280_pressure;Samples;Min_cycle;Max_cycle;Signal;HPM_P1;HPM_P2
2022/06/19 00:00:43;;;;;;;26.80;6.10;;;;;;;14.87;92.93;101335.75;5013774;28;20438;-45
2022/06/19 00:03:16;;;;;;;16.90;5.83;;;;;;;14.95;93.05;101330.97;5014187;28;20661;-45
2022/06/19 00:05:44;;;;;;;12.37;5.30;;;;;;;15.04;92.96;101333.44;5007596;28;21008;-43
2022/06/19 00:08:11;;;;;;;14.63;6.03;;;;;;;15.00;92.42;101332.19;5001269;28;20471;-47
2022/06/19 00:10:39;;;;;;;17.90;6.10;;;;;;;15.07;93.10;101341.91;5003090;28;20433;-43
2022/06/19 00:13:07;;;;;;;21.80;7.30;;;;;;;15.05;92.64;101337.78;5013093;28;20470;-43
2022/06/19 00:15:36;;;;;;;19.23;6.17;;;;;;;15.03;92.09;101318.34;5013871;28;20439;-47
2022/06/19 00:18:04;;;;;;;21.00;6.37;;;;;;;15.09;92.12;101329.06;5012995;28;20473;-43
2022/06/19 00:20:37;;;;;;;11.53;6.27;;;;;;;15.02;91.94;101324.78;5013471;28;20846;-44
2022/06/19 00:23:05;;;;;;;21.17;6.20;;;;;;;15.03;92.46;101315.66;5013578;28;20448;-46
2022/06/19 00:25:34;;;;;;;20.90;6.57;;;;;;;15.03;92.72;101321.03;5012605;28;20433;-45
2022/06/19 00:28:02;;;;;;;16.07;5.17;;;;;;;15.04;92.19;101310.09;5012859;28;20465;-46
2022/06/19 00:30:29;;;;;;;17.50;6.30;;;;;;;15.09;91.90;101314.81;5013436;28;20435;-45
2022/06/19 00:32:59;;;;;;;18.43;6.40;;;;;;;15.11;91.92;101310.91;5005193;28;20444;-46
2022/06/19 00:35:27;;;;;;;17.37;6.40;;;;;;;15.02;90.96;101303.28;5010246;28;20433;-46
2022/06/19 00:37:55;;;;;;;12.60;5.80;;;;;;;15.06;91.23;101296.44;5012605;28;20475;-44
2022/06/19 00:40:25;;;;;;;16.40;6.03;;;;;;;15.04;91.03;101293.13;5013298;28;20443;-43
2022/06/19 00:42:53;;;;;;;16.87;5.97;;;;;;;15.13;91.31;101286.50;5013397;28;20441;-46
2022/06/19 00:45:30;;;;;;;17.40;5.73;;;;;;;15.06;90.70;101297.25;5013301;28;20440;-44
2022/06/19 00:48:01;;;;;;;19.23;6.70;;;;;;;14.99;91.13;101309.91;5012707;28;20483;-44
2022/06/19 00:50:30;;;;;;;20.33;7.07;;;;;;;15.12;91.50;101300.94;5012759;28;20430;-43
2022/06/19 00:52:59;;;;;;;18.13;6.10;;;;;;;15.08;91.67;101299.75;5013190;28;20803;-46
2022/06/19 00:55:31;;;;;;;17.73;6.07;;;;;;;15.02;91.97;101296.06;5010126;28;20438;-43
2022/06/19 00:58:05;;;;;;;12.27;4.80;;;;;;;15.05;91.98;101290.25;5004268;28;20465;-43
2022/06/19 01:00:33;;;;;;;20.80;5.73;;;;;;;15.07;91.58;101298.91;5012688;28;20974;-43
2022/06/19 01:03:07;;;;;;;20.93;7.50;;;;;;;15.07;91.60;101300.78;5012799;28;20448;-45
2022/06/19 01:05:36;;;;;;;15.60;5.80;;;;;;;15.05;91.77;101298.31;5012809;28;20911;-48
2022/06/19 01:08:05;;;;;;;11.60;6.57;;;;;;;15.13;91.74;101302.63;5012320;28;20484;-47
2022/06/19 01:10:38;;;;;;;15.90;6.07;;;;;;;15.15;91.26;101304.03;5012601;28;20429;-46
2022/06/19 01:13:05;;;;;;;16.83;6.90;;;;;;;15.16;90.71;101316.44;5012765;28;20441;-48
2022/06/19 01:15:34;;;;;;;19.97;6.30;;;;;;;15.19;90.76;101305.28;5012521;28;20452;-46
2022/06/19 01:18:06;;;;;;;15.43;6.90;;;;;;;15.18;90.37;101294.72;5011872;28;20465;-44
2022/06/19 01:20:35;;;;;;;10.97;5.20;;;;;;;15.18;90.34;101283.97;5012502;28;20431;-44
2022/06/19 01:23:11;;;;;;;20.27;6.87;;;;;;;15.22;90.25;101263.72;5012384;28;20444;-44
2022/06/19 01:25:42;;;;;;;16.70;6.70;;;;;;;15.31;90.40;101243.63;5012553;28;20428;-45
2022/06/19 01:31:00;;;;;;;13.03;5.03;;;;;;;15.41;89.36;101211.75;5012181;28;20810;-48
2022/06/19 01:33:33;;;;;;;18.90;6.80;;;;;;;15.45;88.94;101221.00;5001308;28;20488;-45
2022/06/19 01:36:03;;;;;;;14.57;6.33;;;;;;;15.52;88.73;101224.50;5012284;28;20433;-46
2022/06/19 01:38:32;;;;;;;12.87;5.37;;;;;;;15.56;88.17;101211.47;5011388;28;20484;-45
2022/06/19 01:41:06;;;;;;;18.40;7.23;;;;;;;15.54;87.40;101189.34;5012350;28;20434;-45
2022/06/19 01:43:34;;;;;;;13.97;6.47;;;;;;;15.49;87.28;101166.63;5012417;28;20436;-43
2022/06/19 01:46:04;;;;;;;14.00;7.03;;;;;;;15.37;88.69;101170.22;5012242;28;20437;-44
2022/06/19 01:48:33;;;;;;;15.10;7.37;;;;;;;15.33;89.51;101158.22;5011791;28;20493;-44
2022/06/19 01:51:04;;;;;;;15.43;6.03;;;;;;;15.30;90.06;101164.03;5011755;28;20433;-45
2022/06/19 01:53:38;;;;;;;15.90;6.43;;;;;;;15.19;91.00;101172.81;5012292;28;20429;-43
2022/06/19 01:56:10;;;;;;;22.90;7.30;;;;;;;15.17;92.66;101173.00;5012151;28;20822;-44
2022/06/19 01:58:41;;;;;;;24.10;7.40;;;;;;;15.19;93.18;101179.00;5011503;28;20465;-47
2022/06/19 02:01:10;;;;;;;15.93;7.30;;;;;;;15.10;93.66;101168.72;5011783;28;20418;-48
2022/06/19 02:03:42;;;;;;;22.50;7.07;;;;;;;14.99;93.77;101167.56;5011833;28;21010;-44
2022/06/19 02:06:11;;;;;;;17.37;7.77;;;;;;;14.93;94.20;101179.97;5012050;28;20476;-44
2022/06/19 02:08:40;;;;;;;18.30;7.90;;;;;;;14.98;94.33;101173.97;5011515;28;20477;-45
2022/06/19 02:11:11;;;;;;;16.13;7.30;;;;;;;14.87;94.53;101153.16;5011670;28;20437;-47
2022/06/19 02:13:40;;;;;;;15.93;6.13;;;;;;;14.84;94.85;101161.66;5011972;28;20441;-47
2022/06/19 02:16:11;;;;;;;16.00;7.17;;;;;;;14.81;95.10;101167.44;5012116;28;20469;-44
2022/06/19 02:18:41;;;;;;;22.00;7.27;;;;;;;14.77;95.31;101212.69;5011386;28;20542;-45
2022/06/19 02:21:15;;;;;;;21.83;6.93;;;;;;;14.76;95.81;101232.50;5011591;28;20927;-44
2022/06/19 02:23:42;;;;;;;29.77;8.93;;;;;;;14.70;95.94;101194.94;5012030;28;20551;-45
2022/06/19 02:26:12;;;;;;;20.10;7.93;;;;;;;14.67;96.01;101206.94;5011808;28;20449;-46
2022/06/19 02:28:43;;;;;;;16.67;7.43;;;;;;;14.67;96.12;101212.28;5011394;28;20465;-47
2022/06/19 02:31:11;;;;;;;26.07;7.67;;;;;;;14.68;96.09;101195.16;5009791;28;20440;-46
2022/06/19 02:33:43;;;;;;;16.40;7.03;;;;;;;14.62;96.39;101203.22;5002066;28;20940;-44
2022/06/19 02:36:38;;;;;;;19.00;7.83;;;;;;;14.66;96.34;101183.81;5011720;28;20445;-46
2022/06/19 02:39:19;;;;;;;20.80;8.47;;;;;;;14.67;96.51;101231.09;5000325;28;20481;-47
2022/06/19 02:41:57;;;;;;;25.07;8.03;;;;;;;14.64;96.40;101207.34;5011404;28;20439;-44
2022/06/19 02:44:32;;;;;;;26.67;10.33;;;;;;;14.52;96.42;101214.41;5011799;28;20443;-47
2022/06/19 02:46:59;;;;;;;20.33;7.77;;;;;;;14.46;95.78;101249.31;5011579;28;20806;-47
2022/06/19 02:49:27;;;;;;;22.27;8.70;;;;;;;14.53;95.48;101250.13;5012464;28;20464;-48
2022/06/19 02:51:55;;;;;;;31.40;9.67;;;;;;;14.46;95.99;101242.09;5015271;28;20437;-48
2022/06/19 02:54:22;;;;;;;38.37;12.73;;;;;;;14.33;91.53;101446.03;5011734;28;20437;-47
2022/06/19 02:56:51;;;;;;;21.90;7.23;;;;;;;14.11;88.87;101468.63;4999242;28;20455;-46
2022/06/19 02:59:19;;;;;;;9.37;4.80;;;;;;;13.91;95.66;101232.63;5014647;28;20473;-47
2022/06/19 03:01:47;;;;;;;18.83;9.97;;;;;;;13.79;97.86;101353.06;5014847;28;20433;-46
2022/06/19 03:04:19;;;;;;;16.40;14.40;;;;;;;13.91;96.59;101251.41;5015098;28;20955;-46
2022/06/19 03:06:47;;;;;;;23.50;21.20;;;;;;;13.80;92.48;101306.44;5015141;28;20540;-44
2022/06/19 03:09:14;;;;;;;32.07;29.80;;;;;;;13.48;97.07;101276.88;5014579;28;20488;-46
2022/06/19 03:11:42;;;;;;;27.50;25.37;;;;;;;13.34;97.42;101288.59;5014852;28;20443;-45
2022/06/19 03:14:11;;;;;;;25.47;23.73;;;;;;;13.26;96.50;101341.31;5014947;28;20452;-44
2022/06/19 03:16:39;;;;;;;24.33;21.00;;;;;;;13.26;95.95;101491.31;5014689;28;20465;-45
2022/06/19 03:19:07;;;;;;;16.97;15.43;;;;;;;13.04;97.71;101167.56;5014373;28;20468;-46
2022/06/19 03:21:35;;;;;;;27.20;24.93;;;;;;;12.74;97.45;101274.09;5014781;28;20536;-42
2022/06/19 03:24:02;;;;;;;19.53;16.50;;;;;;;12.52;97.47;101297.44;5014837;28;20812;-44
2022/06/19 03:26:30;;;;;;;25.00;23.77;;;;;;;12.14;96.08;101253.34;5014756;28;21001;-42
2022/06/19 03:28:58;;;;;;;22.20;21.10;;;;;;;11.75;97.96;101432.84;5014194;28;20471;-44
2022/06/19 03:31:29;;;;;;;18.40;17.10;;;;;;;11.73;97.48;101367.25;5028429;23;20485;-48
2022/06/19 03:33:58;;;;;;;14.30;13.30;;;;;;;11.59;97.85;101209.47;5034227;28;20431;-47
2022/06/19 03:36:26;;;;;;;18.93;13.13;;;;;;;11.50;97.53;101207.09;5034415;28;20438;-49
2022/06/19 03:38:53;;;;;;;12.30;11.13;;;;;;;11.44;97.05;101211.38;5033766;28;20983;-47
2022/06/19 03:41:21;;;;;;;14.67;9.90;;;;;;;11.29;95.04;101189.25;5033788;28;20476;-47
2022/06/19 03:43:49;;;;;;;13.80;7.97;;;;;;;11.23;94.18;101183.88;5034429;28;20452;-49
2022/06/19 03:46:19;;;;;;;7.47;6.60;;;;;;;11.13;93.02;101204.69;5034292;28;20435;-46
2022/06/19 03:48:50;;;;;;;6.70;6.00;;;;;;;11.02;93.05;101240.72;5033657;28;20818;-49
2022/06/19 03:51:22;;;;;;;5.57;5.07;;;;;;;11.05;92.45;101166.41;5033770;28;20962;-50
2022/06/19 03:53:50;;;;;;;6.40;4.23;;;;;;;10.90;93.07;101128.28;5033804;28;20538;-46
2022/06/19 03:56:21;;;;;;;6.67;3.90;;;;;;;10.68;91.60;101192.47;5033999;28;20432;-49
2022/06/19 03:58:49;;;;;;;5.73;3.90;;;;;;;10.67;88.32;101217.47;5033520;28;20460;-46
2022/06/19 04:01:20;;;;;;;3.40;3.00;;;;;;;10.72;88.40;101237.22;5033374;28;20483;-48
2022/06/19 04:03:51;;;;;;;6.10;3.67;;;;;;;10.72;87.50;101289.78;5033769;28;20428;-47
2022/06/19 04:06:22;;;;;;;5.30;4.50;;;;;;;10.82;88.70;101160.41;5033768;28;20435;-46
2022/06/19 04:08:50;;;;;;;4.60;4.20;;;;;;;10.89;88.22;101102.63;5033364;28;20483;-47
2022/06/19 04:11:21;;;;;;;4.73;4.23;;;;;;;10.95;85.57;101085.84;5033679;28;20448;-49
2022/06/19 04:13:49;;;;;;;8.87;5.37;;;;;;;11.02;83.95;101072.59;5033841;28;20479;-47
2022/06/19 04:16:20;;;;;;;6.17;4.67;;;;;;;11.11;81.00;101053.56;5033844;28;20428;-49
2022/06/19 04:18:50;;;;;;;8.70;5.00;;;;;;;11.13;80.58;101058.72;5032968;28;20518;-50
2022/06/19 04:21:24;;;;;;;10.10;4.97;;;;;;;11.11;80.26;101042.88;5033240;28;20482;-49
2022/06/19 04:23:55;;;;;;;5.93;5.43;;;;;;;11.13;79.25;101055.22;5033689;28;20446;-50
2022/06/19 04:26:24;;;;;;;8.70;5.37;;;;;;;11.22;78.38;101110.13;5033613;28;20432;-46
2022/06/19 04:28:52;;;;;;;6.83;5.73;;;;;;;11.30;76.80;101099.28;5032924;28;20988;-50
2022/06/19 04:31:19;;;;;;;10.30;6.70;;;;;;;11.36;75.84;101131.41;5032838;28;20456;-49
2022/06/19 04:33:48;;;;;;;15.93;6.90;;;;;;;11.42;71.82;101185.88;5033632;28;20432;-50
2022/06/19 04:36:19;;;;;;;10.93;6.70;;;;;;;11.61;69.53;101223.47;5033486;28;20432;-48
2022/06/19 04:38:49;;;;;;;10.70;6.50;;;;;;;11.77;67.83;101179.63;5032904;28;20466;-50
2022/06/19 04:41:18;;;;;;;20.70;16.83;;;;;;;11.80;68.49;101135.69;5032933;28;20905;-48
2022/06/19 04:43:46;;;;;;;35.47;32.87;;;;;;;11.75;72.28;101140.78;5032960;28;20436;-51
2022/06/19 04:46:14;;;;;;;31.27;29.40;;;;;;;11.73;72.25;101170.38;5033263;28;20428;-51
2022/06/19 04:48:42;;;;;;;28.60;27.30;;;;;;;11.67;66.39;101219.22;5032642;28;20471;-48
2022/06/19 04:51:12;;;;;;;24.33;23.03;;;;;;;11.57;66.76;101266.78;5032860;28;20476;-49
2022/06/19 04:53:40;;;;;;;19.83;18.57;;;;;;;11.52;69.67;101237.16;5033030;28;20454;-47
2022/06/19 04:56:09;;;;;;;16.00;14.67;;;;;;;11.42;69.91;101165.34;5032871;28;20428;-51
2022/06/19 04:58:37;;;;;;;14.10;12.23;;;;;;;11.37;71.07;101181.13;5032445;28;20849;-47
2022/06/19 05:01:09;;;;;;;25.30;23.50;;;;;;;11.34;71.69;101164.66;5032630;28;20482;-52
2022/06/19 05:03:37;;;;;;;18.97;17.43;;;;;;;11.21;71.14;101153.84;5032748;28;20436;-46
2022/06/19 05:06:06;;;;;;;20.80;19.30;;;;;;;11.24;70.24;101169.47;5032841;28;20436;-47
2022/06/19 05:08:35;;;;;;;32.97;30.97;;;;;;;11.23;67.12;101182.00;5032333;28;20460;-45
2022/06/19 05:11:03;;;;;;;34.70;32.33;;;;;;;11.21;64.35;101151.16;5032153;28;20448;-48
2022/06/19 05:13:31;;;;;;;33.77;31.57;;;;;;;11.14;63.61;101168.97;5032185;28;20443;-47
2022/06/19 05:16:05;;;;;;;35.73;33.47;;;;;;;11.12;65.39;101214.53;5032585;28;20933;-47
2022/06/19 05:18:34;;;;;;;34.70;32.80;;;;;;;11.13;62.73;101196.69;5032039;28;20556;-48
2022/06/19 05:21:04;;;;;;;34.33;31.80;;;;;;;11.16;62.34;101159.75;5031985;28;20973;-46
2022/06/19 05:23:32;;;;;;;34.67;32.27;;;;;;;11.09;64.17;101173.03;5032378;28;20474;-48
2022/06/19 05:26:04;;;;;;;32.33;30.40;;;;;;;11.13;61.68;101108.59;5032535;28;20424;-50
2022/06/19 05:28:33;;;;;;;31.20;29.70;;;;;;;11.10;62.19;101148.00;5031953;28;20558;-48
2022/06/19 05:31:01;;;;;;;29.73;28.10;;;;;;;11.00;62.36;101146.66;5031234;28;20460;-50
2022/06/19 05:33:31;;;;;;;29.93;28.63;;;;;;;11.04;60.65;101105.22;5021158;28;20437;-46
2022/06/19 05:35:59;;;;;;;31.53;29.50;;;;;;;11.08;57.54;101149.19;5032113;28;20436;-46
2022/06/19 05:38:28;;;;;;;30.93;29.33;;;;;;;11.08;56.84;101176.72;5031739;28;20499;-45
2022/06/19 05:40:58;;;;;;;31.57;29.87;;;;;;;11.03;58.49;101204.97;5031728;28;20479;-45
2022/06/19 05:43:30;;;;;;;30.57;29.07;;;;;;;11.03;57.10;101210.31;5032204;28;20436;-49
2022/06/19 05:46:01;;;;;;;30.33;28.73;;;;;;;11.08;54.97;101231.94;5032006;28;20429;-48
2022/06/19 05:48:30;;;;;;;28.07;26.40;;;;;;;11.08;56.77;101205.25;5031468;28;20471;-45
2022/06/19 05:51:00;;;;;;;25.30;23.50;;;;;;;11.16;55.41;101209.66;5031810;28;20448;-48
2022/06/19 05:53:28;;;;;;;22.40;20.60;;;;;;;11.21;55.95;101210.72;5032319;28;20814;-48
2022/06/19 05:55:56;;;;;;;22.30;20.97;;;;;;;11.31;54.42;101221.09;5032007;28;20432;-47
2022/06/19 05:58:24;;;;;;;21.00;19.80;;;;;;;11.45;51.94;101233.56;5031513;28;20467;-49
2022/06/19 06:00:53;;;;;;;19.00;18.10;;;;;;;11.36;59.66;101213.34;5031368;28;20476;-45
2022/06/19 06:03:22;;;;;;;18.20;17.07;;;;;;;11.32;61.55;101161.38;5032096;28;20432;-47
2022/06/19 06:05:50;;;;;;;17.63;16.60;;;;;;;11.38;60.25;101148.03;5031963;28;20432;-46
2022/06/19 06:08:19;;;;;;;19.83;18.57;;;;;;;11.34;63.04;101125.44;5031340;28;20475;-51
2022/06/19 06:10:49;;;;;;;18.83;17.70;;;;;;;11.49;58.46;101112.00;5031731;28;20428;-50
2022/06/19 06:13:17;;;;;;;18.63;17.20;;;;;;;11.43;61.17;101075.38;5031692;28;20783;-46
2022/06/19 06:15:45;;;;;;;17.10;16.10;;;;;;;11.38;67.35;101067.13;5031597;28;20473;-48
2022/06/19 06:18:15;;;;;;;16.53;15.83;;;;;;;11.29;66.93;101109.16;5031263;28;20547;-49
2022/06/19 06:20:43;;;;;;;15.50;14.53;;;;;;;11.25;64.63;101176.47;5031430;28;20439;-47
2022/06/19 06:23:10;;;;;;;16.07;15.17;;;;;;;11.30;63.84;101200.75;5032357;28;20440;-46
2022/06/19 06:25:42;;;;;;;16.83;15.90;;;;;;;11.34;61.68;101159.31;5035679;28;20917;-49
2022/06/19 06:28:14;;;;;;;14.10;13.40;;;;;;;11.44;59.99;101107.22;5035155;28;20463;-47
2022/06/19 06:30:41;;;;;;;13.43;12.83;;;;;;;11.41;61.67;101144.19;5035257;28;20446;-47
2022/06/19 06:33:09;;;;;;;13.33;12.60;;;;;;;11.42;63.37;101167.19;5025530;28;20432;-46
2022/06/19 06:35:38;;;;;;;12.83;11.97;;;;;;;11.46;62.45;101168.47;5033618;28;20963;-47
2022/06/19 06:38:06;;;;;;;12.87;11.70;;;;;;;11.56;61.28;101152.91;5034998;28;20816;-47
2022/06/19 06:40:33;;;;;;;11.67;10.80;;;;;;;11.63;58.97;101138.63;5034017;28;20434;-48
2022/06/19 06:43:01;;;;;;;11.53;10.63;;;;;;;11.73;61.98;101108.09;5035357;28;20480;-49
2022/06/19 06:45:29;;;;;;;11.50;10.80;;;;;;;11.86;60.05;101052.06;5024991;28;20436;-47
2022/06/19 06:47:57;;;;;;;10.27;9.50;;;;;;;11.92;62.20;101037.91;5014941;28;20552;-48
2022/06/19 06:50:25;;;;;;;10.90;9.77;;;;;;;12.19;61.11;101053.88;5015251;28;20429;-51
2022/06/19 06:52:54;;;;;;;10.33;9.40;;;;;;;12.31;62.36;101031.91;5015258;28;20457;-49
2022/06/19 06:55:22;;;;;;;10.00;9.10;;;;;;;12.39;69.75;101056.63;5014956;28;20885;-51
2022/06/19 06:57:50;;;;;;;10.20;9.40;;;;;;;12.47;71.17;101071.66;5014693;28;20462;-46
2022/06/19 07:00:20;;;;;;;8.70;8.20;;;;;;;12.60;72.82;101071.72;5015053;28;20436;-46
2022/06/19 07:02:48;;;;;;;8.40;7.90;;;;;;;12.55;77.32;101066.97;5015129;28;20511;-46
2022/06/19 07:05:16;;;;;;;8.87;8.17;;;;;;;12.64;75.48;101057.72;5015098;28;20931;-47
2022/06/19 07:07:44;;;;;;;7.30;6.70;;;;;;;12.51;80.52;101047.00;5014123;28;20468;-48
2022/06/19 07:10:13;;;;;;;8.37;7.70;;;;;;;12.72;76.47;101027.28;5014767;28;20439;-49
2022/06/19 07:12:47;;;;;;;8.63;8.20;;;;;;;12.73;77.19;101032.44;5014951;28;20483;-49
2022/06/19 07:15:16;;;;;;;7.90;7.20;;;;;;;12.88;74.40;101010.81;5014878;28;20824;-45
2022/06/19 07:17:44;;;;;;;8.93;8.10;;;;;;;13.09;72.60;101007.97;5014534;28;20465;-50
2022/06/19 07:20:12;;;;;;;8.20;7.63;;;;;;;13.25;76.98;101006.75;5014534;28;20429;-50
2022/06/19 07:22:40;;;;;;;8.50;7.90;;;;;;;13.20;84.14;101003.88;5014217;28;20966;-46
2022/06/19 07:25:09;;;;;;;7.53;7.13;;;;;;;13.38;85.12;100979.13;5014788;28;20444;-48
2022/06/19 07:27:37;;;;;;;9.97;7.30;;;;;;;13.48;89.64;100985.69;5013885;28;20461;-46
2022/06/19 07:30:07;;;;;;;8.47;7.30;;;;;;;13.85;86.15;101006.41;5014680;28;20443;-45
2022/06/19 07:32:34;;;;;;;7.30;6.87;;;;;;;14.09;88.99;100988.78;5022258;28;20464;-51
2022/06/19 07:35:04;;;;;;;7.67;7.13;;;;;;;14.36;92.23;100981.47;5027348;28;20432;-47
2022/06/19 07:37:31;;;;;;;8.90;6.30;;;;;;;14.58;95.55;100976.56;5033955;28;20548;-47
2022/06/19 07:39:59;;;;;;;6.33;6.03;;;;;;;15.00;94.30;100964.25;5034275;28;20937;-47
2022/06/19 07:42:27;;;;;;;6.67;6.17;;;;;;;15.08;100.00;100975.56;5034008;28;20515;-48
2022/06/19 07:44:55;;;;;;;7.90;5.90;;;;;;;15.16;100.00;100988.72;5034229;28;20782;-50
2022/06/19 07:50:10;;;;;;;6.80;6.00;;;;;;;15.04;100.00;100998.53;5034151;28;20795;-45
2022/06/19 07:52:39;;;;;;;6.10;5.60;;;;;;;15.07;100.00;101018.75;5026998;28;20469;-49
2022/06/19 07:55:09;;;;;;;7.80;6.03;;;;;;;15.10;100.00;101012.94;5015729;28;20445;-49
2022/06/19 07:57:37;;;;;;;8.17;6.50;;;;;;;14.87;100.00;101024.28;5012201;28;20456;-51
2022/06/19 08:00:10;;;;;;;8.97;6.67;;;;;;;14.80;100.00;101045.78;5013287;28;20439;-49
2022/06/19 08:02:38;;;;;;;6.30;5.83;;;;;;;14.61;100.00;101037.84;5012474;28;20481;-47
2022/06/19 08:05:08;;;;;;;6.77;6.13;;;;;;;14.59;99.38;101042.63;5013445;28;20811;-50
2022/06/19 08:07:36;;;;;;;7.40;6.17;;;;;;;14.58;98.28;101032.91;5013000;28;20461;-50
2022/06/19 08:10:05;;;;;;;6.80;6.40;;;;;;;14.56;97.93;101030.47;5013577;28;20471;-46
2022/06/19 08:12:32;;;;;;;6.80;6.10;;;;;;;14.53;97.89;101022.84;5012550;28;20814;-45
2022/06/19 08:15:00;;;;;;;6.80;6.17;;;;;;;14.44;98.74;101023.31;5013091;28;20443;-49
2022/06/19 08:17:29;;;;;;;9.60;6.40;;;;;;;14.45;97.54;101024.97;5012610;28;20461;-45
2022/06/19 08:19:57;;;;;;;6.73;6.13;;;;;;;14.51;97.69;101019.56;5013492;28;20429;-45
2022/06/19 08:22:24;;;;;;;6.10;5.67;;;;;;;14.66;96.47;101024.63;5012248;28;20996;-47
2022/06/19 08:24:54;;;;;;;6.43;5.93;;;;;;;14.78;96.86;101028.25;5012590;28;20491;-45
2022/06/19 08:27:21;;;;;;;6.80;6.30;;;;;;;14.89;95.74;101038.28;5011614;28;20464;-45
2022/06/19 08:29:50;;;;;;;6.00;5.40;;;;;;;14.89;97.07;101047.19;5012765;28;20467;-49
2022/06/19 08:32:17;;;;;;;5.97;5.10;;;;;;;14.85;96.58;101069.28;5018855;28;20466;-46
2022/06/19 08:34:46;;;;;;;6.77;5.23;;;;;;;14.91;96.47;101073.81;5023323;28;20929;-47
2022/06/19 08:37:15;;;;;;;5.60;5.10;;;;;;;14.89;97.56;101089.31;5031079;28;20804;-46
2022/06/19 08:39:46;;;;;;;5.33;4.90;;;;;;;14.82;98.87;101092.03;5032418;28;20432;-47
2022/06/19 08:42:34;;;;;;;5.20;4.70;;;;;;;14.84;96.42;101097.22;5031117;28;20463;-46
2022/06/19 08:45:29;;;;;;;5.37;4.97;;;;;;;14.91;95.24;101096.13;5026701;28;20435;-46
2022/06/19 08:48:09;;;;;;;4.27;4.03;;;;;;;14.93;95.89;101101.28;5008811;28;20792;-47
2022/06/19 08:50:48;;;;;;;5.10;4.57;;;;;;;14.85;97.54;101105.03;5011807;28;20431;-49
2022/06/19 08:53:45;;;;;;;7.33;4.43;;;;;;;14.90;97.93;101107.88;5011601;28;20971;-45
2022/06/19 08:56:21;;;;;;;9.43;4.50;;;;;;;14.89;98.66;101108.13;5015582;28;20450;-52
2022/06/19 08:58:57;;;;;;;4.27;4.00;;;;;;;14.90;97.69;101110.56;5031312;28;20837;-47
2022/06/19 09:01:38;;;;;;;4.97;4.40;;;;;;;15.05;95.44;101114.84;5031789;28;20448;-46
2022/06/19 09:07:09;;;;;;;4.50;4.10;;;;;;;15.20;98.43;101128.78;5031448;28;20654;-45
2022/06/19 09:09:52;;;;;;;4.57;4.13;;;;;;;15.21;100.00;101123.19;5018268;28;20452;-47
2022/06/19 09:12:41;;;;;;;4.63;4.27;;;;;;;15.13;100.00;101130.69;5026949;28;20461;-49
2022/06/19 09:15:13;;;;;;;9.33;4.73;;;;;;;14.95;100.00;101136.78;5031363;28;20439;-45
2022/06/19 09:17:52;;;;;;;7.03;4.87;;;;;;;14.95;100.00;101145.69;5030892;28;20471;-48
2022/06/19 09:20:31;;;;;;;5.00;4.70;;;;;;;14.88;99.44;101152.94;5031316;28;20428;-44
2022/06/19 09:23:16;;;;;;;5.90;5.07;;;;;;;14.81;99.73;101141.41;5030122;28;20476;-46
2022/06/19 09:25:51;;;;;;;5.20;4.70;;;;;;;14.93;100.00;101131.63;5031085;28;20432;-47
2022/06/19 09:28:26;;;;;;;8.30;5.27;;;;;;;14.88;100.00;101130.63;5031138;28;20486;-46
2022/06/19 09:31:00;;;;;;;9.37;6.03;;;;;;;14.93;100.00;101131.63;5015269;28;20440;-45
2022/06/19 09:33:34;;;;;;;4.77;4.47;;;;;;;14.87;99.61;101142.41;5009341;28;20433;-45
2022/06/19 09:36:07;;;;;;;7.80;4.97;;;;;;;14.70;100.00;101152.81;5021916;28;20425;-47
2022/06/19 09:38:41;;;;;;;9.40;5.13;;;;;;;14.53;99.73;101157.03;5030598;28;20456;-50
2022/06/19 09:41:15;;;;;;;7.80;5.57;;;;;;;14.55;99.00;101156.78;5030692;28;20448;-45
2022/06/19 09:43:49;;;;;;;12.53;5.53;;;;;;;14.38;99.72;101162.66;5017994;28;20473;-46
2022/06/19 09:46:22;;;;;;;7.37;5.87;;;;;;;14.39;99.54;101169.66;5010266;28;20437;-48
2022/06/19 09:48:56;;;;;;;8.37;6.13;;;;;;;14.30;98.69;101172.75;5010092;28;20456;-47
2022/06/19 09:51:30;;;;;;;7.37;6.27;;;;;;;14.30;97.22;101184.31;5010539;28;20525;-46
2022/06/19 09:54:06;;;;;;;7.23;5.90;;;;;;;14.12;98.79;101194.03;5010169;28;20798;-46
2022/06/19 09:56:40;;;;;;;6.60;5.57;;;;;;;14.02;98.55;101190.94;5008617;28;20435;-48
2022/06/19 09:59:15;;;;;;;13.20;6.40;;;;;;;13.99;98.55;101204.78;5008958;28;20465;-45
2022/06/19 10:01:46;;;;;;;10.90;5.40;;;;;;;14.00;98.16;101217.16;5011210;28;20471;-45
2022/06/19 10:04:21;;;;;;;10.40;6.37;;;;;;;13.86;97.55;101216.31;5010556;28;20477;-47
2022/06/19 10:06:54;;;;;;;6.83;5.70;;;;;;;13.78;97.27;101216.53;5021800;28;20427;-45
2022/06/19 10:09:28;;;;;;;12.53;6.80;;;;;;;13.68;96.88;101224.16;5030491;28;20468;-45
2022/06/19 10:11:59;;;;;;;7.67;6.20;;;;;;;13.58;96.80;101229.09;5031150;28;20455;-46
2022/06/19 10:14:36;;;;;;;9.73;6.60;;;;;;;13.53;96.16;101220.84;5030653;28;20432;-45
2022/06/19 10:17:14;;;;;;;6.67;6.17;;;;;;;13.57;94.24;101228.28;5030250;28;20424;-45
2022/06/19 10:19:47;;;;;;;7.43;6.73;;;;;;;13.44;95.68;101238.16;5031363;28;20420;-44
2022/06/19 10:22:38;;;;;;;15.33;7.70;;;;;;;13.34;96.39;101235.88;5031143;28;20451;-45
2022/06/19 10:25:23;;;;;;;8.90;7.57;;;;;;;13.36;94.38;101233.78;5030794;28;20479;-48
2022/06/19 10:28:03;;;;;;;10.30;7.73;;;;;;;13.42;94.00;101235.66;5031158;28;21001;-48
2022/06/19 10:30:37;;;;;;;6.80;6.20;;;;;;;13.51;93.34;101231.75;5031282;28;20971;-45
2022/06/19 10:33:19;;;;;;;7.20;6.50;;;;;;;13.58;94.55;101231.78;5024471;28;20812;-46
2022/06/19 10:35:50;;;;;;;11.80;6.00;;;;;;;13.55;96.75;101222.31;5010026;28;20441;-47
2022/06/19 10:38:34;;;;;;;8.67;7.30;;;;;;;13.72;95.15;101210.16;5009543;28;20465;-46
2022/06/19 10:42:00;;;;;;;8.67;6.20;;;;;;;13.81;98.91;101203.56;5011099;28;20453;-46
2022/06/19 10:44:10;;;;;;;6.00;5.50;;;;;;;13.93;99.34;101209.13;5010344;28;21017;-46
2022/06/19 10:46:40;;;;;;;7.80;6.60;;;;;;;14.03;99.31;101203.34;5010604;28;20455;-45
2022/06/19 10:49:19;;;;;;;5.73;5.30;;;;;;;14.14;99.73;101200.00;5029559;28;20530;-45
2022/06/19 10:51:54;;;;;;;9.80;5.03;;;;;;;14.23;100.00;101196.06;5031286;28;20810;-45
2022/06/19 10:54:42;;;;;;;6.50;5.90;;;;;;;14.27;100.00;101195.47;5012784;28;20440;-48
2022/06/19 10:57:17;;;;;;;8.93;5.87;;;;;;;14.16;100.00;101190.72;5005549;28;20464;-49
2022/06/19 10:59:45;;;;;;;5.73;5.23;;;;;;;14.14;99.79;101187.44;5011559;28;20425;-46
2022/06/19 11:05:21;;;;;;;14.33;6.80;;;;;;;14.02;100.00;101166.81;4997292;28;20472;-50
2022/06/19 11:07:49;;;;;;;10.33;6.83;;;;;;;13.90;100.00;101163.94;5010792;28;21167;-44
2022/06/19 11:10:20;;;;;;;8.20;7.50;;;;;;;13.75;100.00;101163.34;5012065;28;20432;-45
2022/06/19 11:12:56;;;;;;;10.00;7.30;;;;;;;13.88;99.90;101171.38;5018985;28;20460;-48
2022/06/19 11:15:31;;;;;;;8.63;7.90;;;;;;;13.99;99.85;101161.88;5034139;28;20428;-46
2022/06/19 11:18:13;;;;;;;8.27;7.47;;;;;;;14.03;99.94;101160.44;5034518;28;21002;-46
2022/06/19 11:20:43;;;;;;;10.80;8.80;;;;;;;14.10;100.00;101155.84;5034997;28;20534;-47
2022/06/19 11:23:23;;;;;;;11.40;9.23;;;;;;;14.10;100.00;101159.38;5028230;28;20440;-47
2022/06/19 11:26:02;;;;;;;8.70;7.80;;;;;;;14.04;100.00;101170.09;5025468;28;20431;-47
2022/06/19 11:28:51;;;;;;;9.40;7.90;;;;;;;14.14;100.00;101165.16;5025847;28;20833;-46
2022/06/19 11:31:23;;;;;;;10.27;8.17;;;;;;;14.15;100.00;101164.13;5027151;28;20463;-47
2022/06/19 11:34:02;;;;;;;10.83;8.37;;;;;;;14.23;99.96;101153.16;5023902;28;20475;-48
2022/06/19 11:36:33;;;;;;;10.03;8.07;;;;;;;14.12;99.98;101145.78;5010832;28;20939;-46
2022/06/19 11:39:22;;;;;;;8.40;7.57;;;;;;;14.07;99.95;101153.59;5017736;28;20472;-49
2022/06/19 11:41:50;;;;;;;9.07;7.97;;;;;;;13.94;99.98;101153.63;5016234;28;20853;-47
2022/06/19 11:44:21;;;;;;;11.20;8.83;;;;;;;13.86;99.95;101147.44;5014041;28;20482;-45
2022/06/19 11:46:52;;;;;;;11.03;8.60;;;;;;;13.73;99.88;101139.44;5014628;28;20511;-49